Time;durP1;ratioP1;P1;durP2;ratioP2;P2;SDS_P1;SDS_P2;PMS_P1;PMS_P2;Temp;Humidity;BMP_temperature;BMP_pressure;BME280_temperature;BME280_humidity;BME280_pressure;Samples;Min_cycle;Max_cycle;Signal;HPM_P1;HPM_P2
2022/11/18 00:00:32;;;;;;;3.50;2.43;;;;;;;;;;4988825;28;20191;-57
2022/11/18 00:02:58;;;;;;;2.63;2.27;;;;;;;;;;5000476;28;20471;-56
2022/11/18 00:05:32;;;;;;;2.47;2.10;;;;;;;;;;4990841;28;20206;-55
2022/11/18 00:07:59;;;;;;;2.27;2.00;;;;;;;;;;5000519;28;20237;-55
2022/11/18 00:10:25;;;;;;;4.30;2.37;;;;;;;;;;4994511;28;20642;-56
2022/11/18 00:15:36;;;;;;;3.33;2.10;;;;;;;;;;4980040;28;21528;-57
2022/11/18 00:18:02;;;;;;;3.13;1.80;;;;;;;;;;4980276;28;20955;-57
2022/11/18 00:20:28;;;;;;;5.20;2.23;;;;;;;;;;4969848;28;21554;-56
2022/11/18 00:22:54;;;;;;;2.40;2.10;;;;;;;;;;4980573;28;20237;-57
2022/11/18 00:25:23;;;;;;;2.57;2.03;;;;;;;;;;4984055;28;20233;-57
2022/11/18 00:27:49;;;;;;;3.20;2.20;;;;;;;;;;4979495;28;20266;-57
2022/11/18 00:30:15;;;;;;;2.73;2.20;;;;;;;;;;4989686;28;20270;-56
2022/11/18 00:32:41;;;;;;;5.80;2.67;;;;;;;;;;4978553;28;20553;-56
2022/11/18 00:35:08;;;;;;;3.90;2.27;;;;;;;;;;4978109;28;20183;-56
2022/11/18 00:37:34;;;;;;;2.73;2.43;;;;;;;;;;4976753;28;20678;-55
2022/11/18 00:40:00;;;;;;;3.57;2.17;;;;;;;;;;4986001;28;20179;-57
2022/11/18 00:45:11;;;;;;;3.60;2.03;;;;;;;;;;4993421;28;21095;-57
2022/11/18 00:47:37;;;;;;;2.90;2.00;;;;;;;;;;4983705;28;20353;-57
2022/11/18 00:50:03;;;;;;;2.57;1.90;;;;;;;;;;4980577;28;20541;-57
2022/11/18 00:52:32;;;;;;;2.83;2.37;;;;;;;;;;4983800;28;20179;-57
2022/11/18 00:54:58;;;;;;;4.27;2.47;;;;;;;;;;4985254;28;20808;-57
2022/11/18 00:57:31;;;;;;;2.63;1.97;;;;;;;;;;4982570;28;20642;-57
2022/11/18 00:59:57;;;;;;;3.57;2.33;;;;;;;;;;4994171;28;20178;-57
2022/11/18 01:02:23;;;;;;;4.03;2.00;;;;;;;;;;4993547;28;20517;-58
2022/11/18 01:04:49;;;;;;;3.07;2.37;;;;;;;;;;4991016;28;20721;-57
2022/11/18 01:07:15;;;;;;;3.43;2.03;;;;;;;;;;4988465;28;20412;-58
2022/11/18 01:09:41;;;;;;;3.20;2.10;;;;;;;;;;4985037;28;20183;-57
2022/11/18 01:14:53;;;;;;;5.13;2.60;;;;;;;;;;4979984;28;20571;-56
2022/11/18 01:17:19;;;;;;;2.57;2.10;;;;;;;;;;4977818;28;20720;-58
2022/11/18 01:19:45;;;;;;;4.07;2.20;;;;;;;;;;4978913;28;20191;-57
2022/11/18 01:22:11;;;;;;;3.03;2.00;;;;;;;;;;4984145;28;20704;-56
2022/11/18 01:24:44;;;;;;;3.33;2.20;;;;;;;;;;4984755;28;20720;-58
2022/11/18 01:27:10;;;;;;;3.57;2.03;;;;;;;;;;4993891;28;20671;-58
2022/11/18 01:29:36;;;;;;;2.47;2.23;;;;;;;;;;4983496;28;20305;-57
2022/11/18 01:32:04;;;;;;;2.20;1.77;;;;;;;;;;4979804;28;20176;-57
2022/11/18 01:34:31;;;;;;;4.57;2.27;;;;;;;;;;4980033;28;20321;-57
2022/11/18 01:36:57;;;;;;;4.20;2.07;;;;;;;;;;4976627;28;20241;-57
2022/11/18 01:39:23;;;;;;;3.13;2.30;;;;;;;;;;4981125;28;20178;-57
2022/11/18 01:41:49;;;;;;;2.43;1.80;;;;;;;;;;4983695;28;20253;-56
2022/11/18 01:44:34;;;;;;;2.87;1.90;;;;;;;;;;4978410;28;20930;-57
2022/11/18 01:47:00;;;;;;;3.53;2.27;;;;;;;;;;4974650;28;20289;-56
2022/11/18 01:49:34;;;;;;;3.60;2.40;;;;;;;;;;4983929;28;20270;-57
2022/11/18 01:52:04;;;;;;;2.30;2.10;;;;;;;;;;4987485;28;20222;-56
2022/11/18 01:54:35;;;;;;;2.67;1.93;;;;;;;;;;4976954;28;20268;-56
2022/11/18 01:57:03;;;;;;;1.87;1.70;;;;;;;;;;4969387;28;20273;-57
2022/11/18 01:59:31;;;;;;;2.10;1.90;;;;;;;;;;4990588;28;20547;-57
2022/11/18 02:01:58;;;;;;;2.73;1.80;;;;;;;;;;4995570;28;20179;-57
2022/11/18 02:04:24;;;;;;;4.53;2.77;;;;;;;;;;4996842;28;20257;-56
2022/11/18 02:06:53;;;;;;;5.33;2.07;;;;;;;;;;4985577;28;20678;-57
2022/11/18 02:09:20;;;;;;;2.53;1.80;;;;;;;;;;4977775;28;20622;-57
2022/11/18 02:11:50;;;;;;;2.83;1.60;;;;;;;;;;4984723;28;20270;-56
2022/11/18 02:14:17;;;;;;;3.33;2.30;;;;;;;;;;5003295;28;20170;-55
2022/11/18 02:16:52;;;;;;;3.40;2.13;;;;;;;;;;4961278;28;20692;-56
2022/11/18 02:19:21;;;;;;;2.43;1.90;;;;;;;;;;4959702;28;20218;-57
2022/11/18 02:21:50;;;;;;;2.77;2.13;;;;;;;;;;4978279;28;20242;-57
2022/11/18 02:24:40;;;;;;;2.23;1.70;;;;;;;;;;4986463;28;20697;-57
2022/11/18 02:27:25;;;;;;;3.03;1.70;;;;;;;;;;4986207;28;20174;-56
2022/11/18 02:30:01;;;;;;;2.63;2.00;;;;;;;;;;4984418;28;20686;-57
2022/11/18 02:32:36;;;;;;;3.53;1.90;;;;;;;;;;4981173;28;20549;-55
2022/11/18 02:35:09;;;;;;;2.50;2.00;;;;;;;;;;4977575;28;20230;-56
2022/11/18 02:37:38;;;;;;;3.30;2.23;;;;;;;;;;4958963;28;20607;-57
2022/11/18 02:40:08;;;;;;;2.03;1.83;;;;;;;;;;4977916;28;20712;-57
2022/11/18 02:42:35;;;;;;;2.23;1.70;;;;;;;;;;4992487;28;20182;-56
2022/11/18 02:45:05;;;;;;;2.97;2.03;;;;;;;;;;4992687;28;20728;-57
2022/11/18 02:47:32;;;;;;;3.07;2.47;;;;;;;;;;4980578;28;20855;-56
2022/11/18 02:50:01;;;;;;;5.07;2.27;;;;;;;;;;4969592;28;20190;-57
2022/11/18 02:52:27;;;;;;;2.23;1.87;;;;;;;;;;4983808;28;20298;-57
2022/11/18 02:54:54;;;;;;;2.70;2.00;;;;;;;;;;4979615;28;20827;-56
2022/11/18 02:57:21;;;;;;;4.10;1.87;;;;;;;;;;4992578;28;20194;-56
2022/11/18 02:59:47;;;;;;;3.03;1.97;;;;;;;;;;4996321;28;20663;-57
2022/11/18 03:02:17;;;;;;;1.60;1.50;;;;;;;;;;4987716;28;20205;-57
2022/11/18 03:04:43;;;;;;;4.67;2.50;;;;;;;;;;4979900;28;20246;-56
2022/11/18 03:07:18;;;;;;;2.83;1.77;;;;;;;;;;4980675;28;20729;-56
2022/11/18 03:09:52;;;;;;;2.07;1.90;;;;;;;;;;4984032;28;20178;-57
2022/11/18 03:12:27;;;;;;;4.13;1.80;;;;;;;;;;4993679;28;20190;-57
2022/11/18 03:15:08;;;;;;;5.70;2.43;;;;;;;;;;4982077;28;20175;-57
2022/11/18 03:17:53;;;;;;;2.33;2.13;;;;;;;;;;4997274;28;20194;-57
2022/11/18 03:20:27;;;;;;;3.83;1.60;;;;;;;;;;4988673;28;20179;-55
2022/11/18 03:22:55;;;;;;;1.60;1.50;;;;;;;;;;4995764;28;20234;-56
2022/11/18 03:25:30;;;;;;;3.17;2.00;;;;;;;;;;4988659;28;20241;-56
2022/11/18 03:28:07;;;;;;;2.63;1.63;;;;;;;;;;4985954;28;20213;-57
2022/11/18 03:30:35;;;;;;;3.07;2.30;;;;;;;;;;4989971;28;20193;-55
2022/11/18 03:33:11;;;;;;;2.70;1.80;;;;;;;;;;4973529;28;20194;-57
2022/11/18 03:35:39;;;;;;;1.93;1.70;;;;;;;;;;4992978;28;20708;-57
2022/11/18 03:38:09;;;;;;;1.73;1.53;;;;;;;;;;4980792;28;20194;-57
2022/11/18 03:40:38;;;;;;;3.07;2.00;;;;;;;;;;4995570;28;20250;-56
2022/11/18 03:43:07;;;;;;;2.27;1.87;;;;;;;;;;5001805;28;20683;-57
2022/11/18 03:45:39;;;;;;;5.33;2.17;;;;;;;;;;4997112;28;20242;-57
2022/11/18 03:48:11;;;;;;;3.60;1.90;;;;;;;;;;4980486;28;20190;-56
2022/11/18 03:50:41;;;;;;;4.83;2.57;;;;;;;;;;4997122;28;20637;-57
2022/11/18 03:53:07;;;;;;;3.57;2.10;;;;;;;;;;4989427;28;20182;-57
2022/11/18 03:55:36;;;;;;;2.50;2.00;;;;;;;;;;4988249;28;20317;-56
2022/11/18 03:58:15;;;;;;;3.07;1.73;;;;;;;;;;4996734;28;20220;-57
2022/11/18 04:00:43;;;;;;;3.37;2.13;;;;;;;;;;4991604;28;20510;-57
2022/11/18 04:03:09;;;;;;;3.00;2.20;;;;;;;;;;4991503;28;20191;-57
2022/11/18 04:05:38;;;;;;;2.20;1.90;;;;;;;;;;4988167;28;20647;-56
2022/11/18 04:08:06;;;;;;;3.10;1.93;;;;;;;;;;4994836;28;20661;-56
2022/11/18 04:10:35;;;;;;;4.97;1.90;;;;;;;;;;4988021;28;20209;-56
2022/11/18 04:13:07;;;;;;;2.93;2.00;;;;;;;;;;4993901;28;20198;-56
2022/11/18 04:15:36;;;;;;;3.47;2.13;;;;;;;;;;4990350;28;20580;-57
2022/11/18 04:18:02;;;;;;;3.13;2.13;;;;;;;;;;4993723;28;20183;-57
2022/11/18 04:20:30;;;;;;;2.80;2.33;;;;;;;;;;4994544;28;20277;-56
2022/11/18 04:22:56;;;;;;;3.37;2.00;;;;;;;;;;4994023;28;20191;-57
2022/11/18 04:25:23;;;;;;;3.23;1.80;;;;;;;;;;4985714;28;20235;-56
2022/11/18 04:27:49;;;;;;;3.20;2.10;;;;;;;;;;4999739;28;20257;-57
2022/11/18 04:30:16;;;;;;;6.67;2.37;;;;;;;;;;4999145;28;20262;-56
2022/11/18 04:32:42;;;;;;;4.23;2.40;;;;;;;;;;4990089;28;20615;-57
2022/11/18 04:35:08;;;;;;;5.00;1.83;;;;;;;;;;4986866;28;20274;-57
2022/11/18 04:37:34;;;;;;;1.70;1.60;;;;;;;;;;4986179;28;20281;-56
2022/11/18 04:40:00;;;;;;;4.10;1.90;;;;;;;;;;4988408;28;20190;-57
2022/11/18 04:42:26;;;;;;;3.33;2.30;;;;;;;;;;4990516;28;22375;-57
2022/11/18 04:44:52;;;;;;;3.20;2.07;;;;;;;;;;4993293;28;20203;-58
2022/11/18 04:47:18;;;;;;;2.50;2.10;;;;;;;;;;4992108;28;20548;-56
2022/11/18 04:49:44;;;;;;;4.60;1.97;;;;;;;;;;4989697;28;20754;-57
2022/11/18 04:52:10;;;;;;;2.17;1.93;;;;;;;;;;4987996;28;20521;-56
2022/11/18 04:54:36;;;;;;;2.30;1.80;;;;;;;;;;4988883;28;20187;-56
2022/11/18 04:57:03;;;;;;;3.07;2.10;;;;;;;;;;4993280;28;20586;-57
2022/11/18 04:59:29;;;;;;;3.03;2.03;;;;;;;;;;4997949;28;21491;-56
2022/11/18 05:01:56;;;;;;;2.60;2.40;;;;;;;;;;4997801;28;20179;-56
2022/11/18 05:04:26;;;;;;;3.13;2.83;;;;;;;;;;4994530;28;20532;-55
2022/11/18 05:06:52;;;;;;;3.07;1.90;;;;;;;;;;4973474;28;20549;-57
2022/11/18 05:09:18;;;;;;;1.97;1.77;;;;;;;;;;4987927;28;20249;-57
2022/11/18 05:14:29;;;;;;;2.70;1.97;;;;;;;;;;4985220;28;20683;-56
2022/11/18 05:16:56;;;;;;;2.37;1.93;;;;;;;;;;4994248;28;20186;-56
2022/11/18 05:19:22;;;;;;;3.53;1.97;;;;;;;;;;4985383;28;20257;-56
2022/11/18 05:21:49;;;;;;;3.23;2.00;;;;;;;;;;4990581;28;20688;-56
2022/11/18 05:24:15;;;;;;;2.90;1.97;;;;;;;;;;4997415;28;20310;-55
2022/11/18 05:26:41;;;;;;;4.90;2.13;;;;;;;;;;4977050;28;20628;-54
2022/11/18 05:29:07;;;;;;;4.40;2.37;;;;;;;;;;4986635;28;20491;-56
2022/11/18 05:31:33;;;;;;;2.67;1.83;;;;;;;;;;4995216;28;20658;-56
2022/11/18 05:33:59;;;;;;;1.97;1.73;;;;;;;;;;4989539;28;20521;-55
2022/11/18 05:36:25;;;;;;;4.63;2.30;;;;;;;;;;4997591;28;20194;-55
2022/11/18 05:38:51;;;;;;;2.07;1.73;;;;;;;;;;4997034;28;20236;-55
2022/11/18 05:44:10;;;;;;;2.20;1.83;;;;;;;;;;4957291;28;20254;-56
2022/11/18 05:46:36;;;;;;;4.63;2.30;;;;;;;;;;4994424;28;20269;-56
2022/11/18 05:49:02;;;;;;;4.70;2.00;;;;;;;;;;4978498;28;20222;-56
2022/11/18 05:51:28;;;;;;;5.30;2.23;;;;;;;;;;4983974;28;20209;-54
2022/11/18 05:53:55;;;;;;;2.73;1.97;;;;;;;;;;4988137;28;20541;-55
2022/11/18 05:56:27;;;;;;;2.93;1.87;;;;;;;;;;4983949;28;20187;-55
2022/11/18 05:58:53;;;;;;;1.63;1.53;;;;;;;;;;4986337;28;20554;-56
2022/11/18 06:01:21;;;;;;;1.90;1.70;;;;;;;;;;4989778;28;20194;-56
2022/11/18 06:03:48;;;;;;;2.17;1.77;;;;;;;;;;4988582;28;20577;-54
2022/11/18 06:06:15;;;;;;;2.73;1.90;;;;;;;;;;4973444;28;20507;-55
2022/11/18 06:08:48;;;;;;;3.20;1.90;;;;;;;;;;4988178;28;20187;-55
2022/11/18 06:11:15;;;;;;;1.87;1.73;;;;;;;;;;5000641;28;20208;-55
2022/11/18 06:13:51;;;;;;;4.40;1.90;;;;;;;;;;4987155;28;20174;-54
2022/11/18 06:16:22;;;;;;;2.37;1.70;;;;;;;;;;4998719;28;20182;-54
2022/11/18 06:18:48;;;;;;;4.50;2.40;;;;;;;;;;4988859;28;20516;-55
2022/11/18 06:21:14;;;;;;;2.13;1.73;;;;;;;;;;4987108;28;20251;-54
2022/11/18 06:23:41;;;;;;;4.17;2.00;;;;;;;;;;4988057;28;20293;-55
2022/11/18 06:26:08;;;;;;;2.60;2.20;;;;;;;;;;4996670;28;20215;-54
2022/11/18 06:28:35;;;;;;;3.70;2.30;;;;;;;;;;4988824;28;20484;-55
2022/11/18 06:31:01;;;;;;;6.60;2.50;;;;;;;;;;4993192;28;20195;-52
2022/11/18 06:33:27;;;;;;;5.65;3.70;;;;;;;;;;4984879;28;20775;-55
2022/11/18 06:35:53;;;;;;;4.40;2.30;;;;;;;;;;4979381;28;20211;-54
2022/11/18 06:38:25;;;;;;;2.80;2.57;;;;;;;;;;4980073;28;20313;-53
2022/11/18 06:40:51;;;;;;;3.63;2.20;;;;;;;;;;4983406;28;20700;-54
2022/11/18 06:48:49;;;;;;;5.37;3.00;;;;;;;;;;4956104;28;20214;-54
2022/11/18 06:51:22;;;;;;;4.30;2.70;;;;;;;;;;5007620;28;20159;-54
2022/11/18 06:53:48;;;;;;;4.43;2.50;;;;;;;;;;5001533;28;20182;-54
2022/11/18 06:56:15;;;;;;;2.40;2.20;;;;;;;;;;4991685;28;20194;-54
2022/11/18 06:58:41;;;;;;;3.73;2.70;;;;;;;;;;4985323;28;20185;-54
2022/11/18 07:01:18;;;;;;;5.10;3.00;;;;;;;;;;4991534;28;20183;-54
2022/11/18 07:03:45;;;;;;;3.33;2.13;;;;;;;;;;4988508;28;20167;-54
2022/11/18 07:06:12;;;;;;;4.10;2.47;;;;;;;;;;5002187;28;20692;-54
2022/11/18 07:08:39;;;;;;;7.57;2.57;;;;;;;;;;4987292;28;20182;-54
2022/11/18 07:11:06;;;;;;;4.03;2.50;;;;;;;;;;4984891;28;20413;-54
2022/11/18 07:13:32;;;;;;;3.30;2.50;;;;;;;;;;5006881;28;20169;-54
2022/11/18 07:16:12;;;;;;;6.20;2.67;;;;;;;;;;5005933;28;20167;-54
2022/11/18 07:18:40;;;;;;;3.33;2.30;;;;;;;;;;5005246;28;20763;-54
2022/11/18 07:21:26;;;;;;;4.37;2.40;;;;;;;;;;5003804;28;20178;-54
2022/11/18 07:23:53;;;;;;;2.77;2.37;;;;;;;;;;4982309;28;20625;-54
2022/11/18 07:26:19;;;;;;;2.73;2.53;;;;;;;;;;4994905;28;20669;-54
2022/11/18 07:28:45;;;;;;;3.03;2.23;;;;;;;;;;4984178;28;20689;-54
2022/11/18 07:31:15;;;;;;;6.33;2.53;;;;;;;;;;4988421;28;20176;-54
2022/11/18 07:33:42;;;;;;;3.77;2.23;;;;;;;;;;4990686;28;20296;-54
2022/11/18 07:36:10;;;;;;;2.53;2.23;;;;;;;;;;4983831;28;20571;-54
2022/11/18 07:38:36;;;;;;;3.40;2.40;;;;;;;;;;4987052;28;20191;-55
2022/11/18 07:41:06;;;;;;;6.27;2.93;;;;;;;;;;4987529;28;20567;-55
2022/11/18 07:43:33;;;;;;;4.00;2.57;;;;;;;;;;4986683;28;20626;-54
2022/11/18 07:46:07;;;;;;;2.40;2.20;;;;;;;;;;4987453;28;20214;-54
2022/11/18 07:48:33;;;;;;;2.77;2.20;;;;;;;;;;4996351;28;20253;-54
2022/11/18 07:51:02;;;;;;;3.20;2.40;;;;;;;;;;5005376;28;20155;-54
2022/11/18 07:53:32;;;;;;;3.07;2.77;;;;;;;;;;4999858;28;20237;-54
2022/11/18 07:55:58;;;;;;;3.43;2.40;;;;;;;;;;4995631;28;20210;-54
2022/11/18 07:58:24;;;;;;;3.00;2.53;;;;;;;;;;4974128;28;20580;-54
2022/11/18 08:00:50;;;;;;;3.83;2.17;;;;;;;;;;4993288;28;20437;-54
2022/11/18 08:03:16;;;;;;;2.80;2.17;;;;;;;;;;4996299;28;20186;-54
2022/11/18 08:05:42;;;;;;;2.97;2.40;;;;;;;;;;4985191;28;20195;-53
2022/11/18 08:08:09;;;;;;;2.80;2.17;;;;;;;;;;4982080;28;20193;-54
2022/11/18 08:10:35;;;;;;;2.37;2.17;;;;;;;;;;4986615;28;20187;-54
2022/11/18 08:13:01;;;;;;;3.97;2.50;;;;;;;;;;4986420;28;20195;-54
2022/11/18 08:15:27;;;;;;;2.43;2.20;;;;;;;;;;4986832;28;20217;-54
2022/11/18 08:17:53;;;;;;;2.53;2.10;;;;;;;;;;4989861;28;20717;-54
2022/11/18 08:20:19;;;;;;;4.23;2.30;;;;;;;;;;4987637;28;20704;-54
2022/11/18 08:22:45;;;;;;;3.97;2.47;;;;;;;;;;4981571;28;20187;-54
2022/11/18 08:25:12;;;;;;;3.13;2.10;;;;;;;;;;4991549;28;20761;-54
2022/11/18 08:27:38;;;;;;;2.77;2.37;;;;;;;;;;4987837;28;20990;-54
2022/11/18 08:30:04;;;;;;;3.37;2.50;;;;;;;;;;4999749;28;20551;-54
2022/11/18 08:32:30;;;;;;;3.80;2.00;;;;;;;;;;4991705;28;20652;-54
2022/11/18 08:34:56;;;;;;;3.77;2.10;;;;;;;;;;4982711;28;20273;-54
2022/11/18 08:37:22;;;;;;;2.43;1.83;;;;;;;;;;4976229;28;20186;-54
2022/11/18 08:39:48;;;;;;;2.67;2.10;;;;;;;;;;4994552;28;20193;-54
2022/11/18 08:42:14;;;;;;;3.03;2.33;;;;;;;;;;4996792;28;20665;-54
2022/11/18 08:44:41;;;;;;;2.83;2.30;;;;;;;;;;4979908;28;20191;-54
2022/11/18 08:47:07;;;;;;;3.23;2.27;;;;;;;;;;4982628;28;20260;-54
2022/11/18 08:49:33;;;;;;;2.60;2.40;;;;;;;;;;4978742;28;20243;-54
2022/11/18 08:52:05;;;;;;;3.83;2.17;;;;;;;;;;4996639;28;20179;-54
2022/11/18 08:54:31;;;;;;;2.57;2.20;;;;;;;;;;4986887;28;20177;-55
2022/11/18 08:56:57;;;;;;;2.33;2.03;;;;;;;;;;4996804;28;20176;-55
2022/11/18 08:59:23;;;;;;;3.92;2.83;;;;;;;;;;4986054;28;20426;-55
2022/11/18 09:01:49;;;;;;;2.93;2.20;;;;;;;;;;4983471;28;20953;-54
2022/11/18 09:04:15;;;;;;;4.63;2.37;;;;;;;;;;4987924;28;22171;-55
2022/11/18 09:06:41;;;;;;;3.63;2.13;;;;;;;;;;4985334;28;20202;-54
2022/11/18 09:09:07;;;;;;;4.60;2.60;;;;;;;;;;4985857;28;20682;-55
2022/11/18 09:11:34;;;;;;;4.27;2.80;;;;;;;;;;4985812;28;20171;-55
2022/11/18 09:14:00;;;;;;;3.50;2.20;;;;;;;;;;4990410;28;20185;-55
2022/11/18 09:16:27;;;;;;;3.03;1.70;;;;;;;;;;4999841;28;20226;-55
2022/11/18 09:18:54;;;;;;;2.67;2.30;;;;;;;;;;4990897;28;20650;-55
2022/11/18 09:21:20;;;;;;;3.47;2.57;;;;;;;;;;5010329;28;20584;-55
2022/11/18 09:23:46;;;;;;;3.90;2.50;;;;;;;;;;4994678;28;20294;-55
2022/11/18 09:26:13;;;;;;;4.00;2.37;;;;;;;;;;4972420;28;20199;-55
2022/11/18 09:28:40;;;;;;;2.87;2.40;;;;;;;;;;5005531;28;20179;-55
2022/11/18 09:31:13;;;;;;;2.77;2.53;;;;;;;;;;5006483;28;20653;-55
2022/11/18 09:33:40;;;;;;;2.67;2.37;;;;;;;;;;4998959;28;20194;-55
2022/11/18 09:36:11;;;;;;;2.80;2.60;;;;;;;;;;4984670;28;20304;-55
2022/11/18 09:38:37;;;;;;;4.70;2.37;;;;;;;;;;4989032;28;20669;-55
2022/11/18 09:41:09;;;;;;;4.57;2.40;;;;;;;;;;4996179;28;20521;-55
2022/11/18 09:43:41;;;;;;;4.23;2.43;;;;;;;;;;4985855;28;20497;-55
2022/11/18 09:46:20;;;;;;;3.93;2.70;;;;;;;;;;4989028;28;20314;-55
2022/11/18 09:51:34;;;;;;;4.83;2.40;;;;;;;;;;4993377;28;20695;-55
2022/11/18 09:54:00;;;;;;;3.67;2.37;;;;;;;;;;4984715;28;20728;-55
2022/11/18 09:56:26;;;;;;;4.03;2.40;;;;;;;;;;4985005;28;20175;-55
2022/11/18 09:58:53;;;;;;;3.83;2.50;;;;;;;;;;4985330;28;20560;-55
2022/11/18 10:01:20;;;;;;;4.07;2.50;;;;;;;;;;4988415;28;20764;-54
2022/11/18 10:03:46;;;;;;;4.20;2.50;;;;;;;;;;4988776;28;20190;-54
2022/11/18 10:06:17;;;;;;;3.10;2.70;;;;;;;;;;4996706;28;20206;-56
2022/11/18 10:08:59;;;;;;;5.60;2.90;;;;;;;;;;4990474;28;20545;-55
2022/11/18 10:11:28;;;;;;;4.10;2.90;;;;;;;;;;4982902;28;20190;-54
2022/11/18 10:14:05;;;;;;;3.97;2.70;;;;;;;;;;4982156;28;20268;-54
2022/11/18 10:16:35;;;;;;;4.03;2.30;;;;;;;;;;4982606;28;20249;-55
2022/11/18 10:19:20;;;;;;;2.50;2.27;;;;;;;;;;4984931;28;20628;-54
2022/11/18 10:21:55;;;;;;;3.37;2.63;;;;;;;;;;4991181;28;20512;-54
2022/11/18 10:24:24;;;;;;;2.67;2.47;;;;;;;;;;4990613;28;20238;-55
2022/11/18 10:26:55;;;;;;;5.57;2.90;;;;;;;;;;4991212;28;20199;-54
2022/11/18 10:29:22;;;;;;;4.03;2.57;;;;;;;;;;4987299;28;20171;-54
2022/11/18 10:32:10;;;;;;;3.30;2.60;;;;;;;;;;4991843;28;20179;-54
2022/11/18 10:34:46;;;;;;;3.30;3.00;;;;;;;;;;5006738;28;20155;-55
2022/11/18 10:37:32;;;;;;;5.83;2.87;;;;;;;;;;4990647;28;20270;-54
2022/11/18 10:39:59;;;;;;;3.60;2.50;;;;;;;;;;4985107;28;20901;-54
2022/11/18 10:42:28;;;;;;;6.80;3.10;;;;;;;;;;4965965;28;20187;-55
2022/11/18 10:44:54;;;;;;;4.03;2.60;;;;;;;;;;4985120;28;20206;-54
2022/11/18 10:47:30;;;;;;;2.60;2.40;;;;;;;;;;4981027;28;20657;-55
2022/11/18 10:49:58;;;;;;;5.13;2.83;;;;;;;;;;5001751;28;20196;-55
2022/11/18 10:52:24;;;;;;;4.60;2.73;;;;;;;;;;5001402;28;20729;-55
2022/11/18 10:55:09;;;;;;;5.53;2.83;;;;;;;;;;4995169;28;20187;-55
2022/11/18 10:57:42;;;;;;;5.03;2.90;;;;;;;;;;4973781;28;20433;-54
2022/11/18 11:00:28;;;;;;;3.17;2.53;;;;;;;;;;4987763;28;20206;-54
2022/11/18 11:02:54;;;;;;;4.77;2.83;;;;;;;;;;4977808;28;20289;-54
2022/11/18 11:05:21;;;;;;;3.87;2.70;;;;;;;;;;4981873;28;20729;-54
2022/11/18 11:08:04;;;;;;;3.40;2.57;;;;;;;;;;4993157;28;20186;-55
2022/11/18 11:10:30;;;;;;;3.37;2.83;;;;;;;;;;4984538;28;20183;-55
2022/11/18 11:13:01;;;;;;;6.83;2.57;;;;;;;;;;4991775;28;20705;-55
2022/11/18 11:15:27;;;;;;;4.20;2.77;;;;;;;;;;4997920;28;20274;-55
2022/11/18 11:20:42;;;;;;;3.10;2.33;;;;;;;;;;5006965;28;20990;-55
2022/11/18 11:23:09;;;;;;;4.50;2.80;;;;;;;;;;5008239;28;20594;-55
2022/11/18 11:25:48;;;;;;;6.33;2.40;;;;;;;;;;5009336;28;20249;-55
2022/11/18 11:28:20;;;;;;;4.67;2.80;;;;;;;;;;5007762;28;20541;-54
2022/11/18 11:31:05;;;;;;;6.30;3.30;;;;;;;;;;4998054;28;20543;-54
2022/11/18 11:33:54;;;;;;;7.37;3.27;;;;;;;;;;4988697;28;20178;-55
2022/11/18 11:36:20;;;;;;;5.67;3.23;;;;;;;;;;4958804;28;20333;-55
2022/11/18 11:38:46;;;;;;;3.57;2.53;;;;;;;;;;4988134;28;20612;-55
2022/11/18 11:41:18;;;;;;;6.33;2.80;;;;;;;;;;4972273;28;20560;-55
2022/11/18 11:43:46;;;;;;;4.40;2.63;;;;;;;;;;4994050;28;20254;-55
2022/11/18 11:46:12;;;;;;;4.43;3.13;;;;;;;;;;5005701;28;20206;-54
2022/11/18 11:48:56;;;;;;;4.37;2.70;;;;;;;;;;4997238;28;20195;-55
2022/11/18 11:51:34;;;;;;;4.33;2.70;;;;;;;;;;4985849;28;20167;-54
2022/11/18 11:54:00;;;;;;;5.83;3.10;;;;;;;;;;4987341;28;20172;-54
2022/11/18 11:56:32;;;;;;;6.77;2.90;;;;;;;;;;4987061;28;20222;-55
2022/11/18 11:59:07;;;;;;;3.50;2.40;;;;;;;;;;4987142;28;20156;-54
2022/11/18 12:01:51;;;;;;;2.97;2.47;;;;;;;;;;5001863;28;20193;-54
2022/11/18 12:04:31;;;;;;;5.03;3.30;;;;;;;;;;5006489;28;20179;-55
2022/11/18 12:06:58;;;;;;;2.63;2.40;;;;;;;;;;5001534;28;20269;-55
2022/11/18 12:09:28;;;;;;;3.07;2.43;;;;;;;;;;5005781;28;20167;-55
2022/11/18 12:12:00;;;;;;;3.23;2.57;;;;;;;;;;4991066;28;20179;-55
2022/11/18 12:14:35;;;;;;;3.70;2.93;;;;;;;;;;4985603;28;20192;-55
2022/11/18 12:17:06;;;;;;;7.47;2.73;;;;;;;;;;5012298;28;20192;-55
2022/11/18 12:19:37;;;;;;;5.57;2.93;;;;;;;;;;4987412;28;20207;-56
2022/11/18 12:22:04;;;;;;;5.67;2.73;;;;;;;;;;4988197;28;20654;-56
2022/11/18 12:24:37;;;;;;;4.93;2.37;;;;;;;;;;4984314;28;20689;-55
2022/11/18 12:27:03;;;;;;;7.57;2.87;;;;;;;;;;4990924;28;20778;-55
2022/11/18 12:29:54;;;;;;;4.73;2.57;;;;;;;;;;4996621;28;20175;-55
2022/11/18 12:32:35;;;;;;;4.53;2.40;;;;;;;;;;5003678;28;20501;-54
2022/11/18 12:35:24;;;;;;;5.80;2.60;;;;;;;;;;4986522;28;20163;-55
2022/11/18 12:37:50;;;;;;;3.73;2.40;;;;;;;;;;4980349;28;20187;-55
2022/11/18 12:40:35;;;;;;;5.97;2.90;;;;;;;;;;4986659;28;20190;-55
2022/11/18 12:45:46;;;;;;;2.50;2.00;;;;;;;;;;5004140;28;20300;-55
2022/11/18 12:48:31;;;;;;;3.97;2.60;;;;;;;;;;5000661;28;20171;-56
2022/11/18 12:51:17;;;;;;;6.67;2.97;;;;;;;;;;5004936;28;20245;-54
2022/11/18 12:53:45;;;;;;;7.23;2.87;;;;;;;;;;5006166;28;20143;-55
2022/11/18 12:56:11;;;;;;;3.30;2.57;;;;;;;;;;5006028;28;20194;-55
2022/11/18 12:58:37;;;;;;;3.37;2.87;;;;;;;;;;4992570;28;20279;-55
2022/11/18 13:01:05;;;;;;;6.53;3.77;;;;;;;;;;4998808;28;20481;-55
2022/11/18 13:03:32;;;;;;;5.87;2.83;;;;;;;;;;4997034;28;20189;-55
2022/11/18 13:06:00;;;;;;;5.17;2.70;;;;;;;;;;5004705;28;20227;-56
2022/11/18 13:08:27;;;;;;;7.00;2.83;;;;;;;;;;5002969;28;20273;-55
2022/11/18 13:11:43;;;;;;;4.47;2.80;;;;;;;;;;5005345;28;20178;-55
2022/11/18 13:13:41;;;;;;;5.30;3.50;;;;;;;;;;4989854;28;20716;-55
2022/11/18 13:19:03;;;;;;;4.53;1.97;;;;;;;;;;5005920;28;20173;-56
2022/11/18 13:24:27;;;;;;;3.07;2.37;;;;;;;;;;5006726;28;20646;-55
2022/11/18 13:26:55;;;;;;;5.73;2.63;;;;;;;;;;5002169;28;20206;-54
2022/11/18 13:29:41;;;;;;;4.33;2.03;;;;;;;;;;4990412;28;20327;-55
2022/11/18 13:32:24;;;;;;;4.23;2.17;;;;;;;;;;4994040;28;20539;-55
2022/11/18 13:34:51;;;;;;;4.20;2.53;;;;;;;;;;4985316;28;20997;-56
2022/11/18 13:37:19;;;;;;;3.03;2.37;;;;;;;;;;4990591;28;20729;-56
2022/11/18 13:39:47;;;;;;;4.17;2.93;;;;;;;;;;5005322;28;20194;-55
2022/11/18 13:42:21;;;;;;;8.80;2.40;;;;;;;;;;4994017;28;20172;-56
2022/11/18 13:44:53;;;;;;;5.23;2.63;;;;;;;;;;4985700;28;20195;-55
2022/11/18 13:47:35;;;;;;;8.07;2.97;;;;;;;;;;4988319;28;20664;-55
2022/11/18 13:50:10;;;;;;;2.40;2.20;;;;;;;;;;4986756;28;20221;-56
2022/11/18 13:52:41;;;;;;;3.77;2.50;;;;;;;;;;4985781;28;20534;-55
2022/11/18 13:55:20;;;;;;;5.20;2.50;;;;;;;;;;5004301;28;20657;-55
2022/11/18 13:57:48;;;;;;;4.73;2.83;;;;;;;;;;5004376;28;20174;-55
2022/11/18 14:00:20;;;;;;;5.83;2.80;;;;;;;;;;4987465;28;20182;-55
2022/11/18 14:02:49;;;;;;;3.93;2.50;;;;;;;;;;5004242;28;20182;-55
2022/11/18 14:05:19;;;;;;;5.00;2.27;;;;;;;;;;4999934;28;20206;-55
2022/11/18 14:08:05;;;;;;;9.33;2.83;;;;;;;;;;4991502;28;20225;-55
2022/11/18 14:10:32;;;;;;;4.47;2.70;;;;;;;;;;5009545;28;20169;-54
2022/11/18 14:12:59;;;;;;;6.87;2.53;;;;;;;;;;4998751;28;20649;-54
2022/11/18 14:15:28;;;;;;;3.73;2.33;;;;;;;;;;4986340;28;20742;-54
2022/11/18 14:17:58;;;;;;;4.70;2.80;;;;;;;;;;4985486;28;20179;-54
2022/11/18 14:20:25;;;;;;;12.93;3.10;;;;;;;;;;4982765;28;20197;-52
2022/11/18 14:22:56;;;;;;;5.60;2.50;;;;;;;;;;4993663;28;20521;-54
2022/11/18 14:25:39;;;;;;;4.33;2.80;;;;;;;;;;4991602;28;20227;-54
2022/11/18 14:28:13;;;;;;;4.27;2.70;;;;;;;;;;5003417;28;20170;-54
2022/11/18 14:30:40;;;;;;;4.97;2.40;;;;;;;;;;4982736;28;20264;-54
2022/11/18 14:33:10;;;;;;;4.33;2.73;;;;;;;;;;4985308;28;20158;-54
2022/11/18 14:35:36;;;;;;;7.23;3.10;;;;;;;;;;4991586;28;20183;-54
2022/11/18 14:38:08;;;;;;;8.07;3.00;;;;;;;;;;5005136;28;20242;-61
2022/11/18 14:40:34;;;;;;;4.93;2.70;;;;;;;;;;4989940;28;20260;-54
2022/11/18 14:43:01;;;;;;;7.23;2.67;;;;;;;;;;4987797;28;20580;-54
2022/11/18 14:45:27;;;;;;;8.23;3.37;;;;;;;;;;4985389;28;20302;-54
2022/11/18 14:47:53;;;;;;;4.73;2.70;;;;;;;;;;4982587;28;20437;-54
2022/11/18 14:50:19;;;;;;;3.43;2.70;;;;;;;;;;4968785;28;20175;-54
2022/11/18 14:52:45;;;;;;;5.97;3.00;;;;;;;;;;4988232;28;20191;-54
2022/11/18 14:55:11;;;;;;;4.30;2.80;;;;;;;;;;4990396;28;20637;-54
2022/11/18 14:57:37;;;;;;;7.03;3.57;;;;;;;;;;4989835;28;20252;-54
2022/11/18 15:00:05;;;;;;;7.97;3.10;;;;;;;;;;4995649;28;20179;-54
2022/11/18 15:02:31;;;;;;;5.17;2.97;;;;;;;;;;4993174;28;20862;-54
2022/11/18 15:04:57;;;;;;;7.43;3.30;;;;;;;;;;5001165;28;20206;-54
2022/11/18 15:07:23;;;;;;;8.73;3.37;;;;;;;;;;4990233;28;20205;-54
2022/11/18 15:09:49;;;;;;;7.63;3.70;;;;;;;;;;5005269;28;20179;-54
2022/11/18 15:12:15;;;;;;;4.43;2.70;;;;;;;;;;4999368;28;20183;-54
2022/11/18 15:14:41;;;;;;;4.33;2.90;;;;;;;;;;5006809;28;20225;-54
2022/11/18 15:17:11;;;;;;;4.03;2.50;;;;;;;;;;4977751;28;20178;-54
2022/11/18 15:19:39;;;;;;;8.37;2.90;;;;;;;;;;4999450;28;20453;-55
2022/11/18 15:22:05;;;;;;;4.03;2.87;;;;;;;;;;5001500;28;20182;-54
2022/11/18 15:24:31;;;;;;;8.60;3.47;;;;;;;;;;5000829;28;20721;-55
2022/11/18 15:26:57;;;;;;;4.07;2.97;;;;;;;;;;4998579;28;20199;-54
2022/11/18 15:29:24;;;;;;;4.57;3.40;;;;;;;;;;4998084;28;20175;-54